createdAt,value
2022-07-29T00:01:44.704Z,101266.19
2022-07-29T00:04:13.704Z,101267.41
2022-07-29T00:06:42.610Z,101260.75
2022-07-29T00:09:10.891Z,101261.19
2022-07-29T00:11:40.908Z,101256.19
2022-07-29T00:14:10.793Z,101256.75
2022-07-29T00:16:39.313Z,101259.81
2022-07-29T00:19:08.008Z,101263.75
2022-07-29T00:21:37.056Z,101266.00
2022-07-29T00:24:06.142Z,101265.72
2022-07-29T00:26:34.743Z,101262.63
2022-07-29T00:29:32.879Z,101265.69
2022-07-29T00:31:55.709Z,101266.44
2022-07-29T00:34:41.337Z,101274.88
2022-07-29T00:37:10.638Z,101268.25
2022-07-29T00:39:38.655Z,101265.09
2022-07-29T00:42:07.549Z,101277.06
2022-07-29T00:44:40.642Z,101276.59
2022-07-29T00:47:09.544Z,101270.81
2022-07-29T00:49:38.353Z,101271.38
2022-07-29T00:52:11.104Z,101269.25
2022-07-29T00:54:44.434Z,101271.69
2022-07-29T00:57:14.013Z,101259.28
2022-07-29T00:59:43.871Z,101263.19
2022-07-29T01:02:12.266Z,101260.88
2022-07-29T01:04:41.160Z,101266.41
2022-07-29T01:07:09.695Z,101271.34
2022-07-29T01:09:45.816Z,101268.22
2022-07-29T01:12:17.450Z,101267.09
2022-07-29T01:14:47.119Z,101263.16
2022-07-29T01:17:20.464Z,101261.03
2022-07-29T01:19:55.742Z,101266.91
2022-07-29T01:22:34.016Z,101263.81
2022-07-29T01:25:16.831Z,101260.66
2022-07-29T01:28:03.583Z,101260.00
2022-07-29T01:30:37.913Z,101271.09
2022-07-29T01:33:12.431Z,101270.84
2022-07-29T01:35:43.215Z,101275.38
2022-07-29T01:38:16.008Z,101272.03
2022-07-29T01:40:48.947Z,101284.97
2022-07-29T01:43:22.484Z,101273.97
2022-07-29T01:45:58.889Z,101283.25
2022-07-29T01:48:43.213Z,101271.88
2022-07-29T01:51:16.862Z,101282.94
2022-07-29T01:53:48.470Z,101294.41
2022-07-29T01:56:19.217Z,101287.13
2022-07-29T01:58:49.513Z,101286.47
2022-07-29T02:01:20.589Z,101292.84
2022-07-29T02:03:50.176Z,101291.53
2022-07-29T02:06:21.590Z,101291.09
2022-07-29T02:08:51.337Z,101298.47
2022-07-29T02:11:20.080Z,101288.28
2022-07-29T02:13:53.320Z,101299.66
2022-07-29T02:16:23.999Z,101293.47
2022-07-29T02:18:56.036Z,101289.31
2022-07-29T02:21:29.323Z,101291.53
2022-07-29T02:24:01.703Z,101290.88
2022-07-29T02:26:31.465Z,101293.25
2022-07-29T02:29:01.681Z,101295.69
2022-07-29T02:31:35.863Z,101291.50
2022-07-29T02:34:05.533Z,101297.22
2022-07-29T02:36:35.009Z,101303.13
2022-07-29T02:39:04.578Z,101298.75
2022-07-29T02:41:42.438Z,101303.47
2022-07-29T02:44:13.525Z,101308.03
2022-07-29T02:46:47.721Z,101307.34
2022-07-29T02:49:20.234Z,101302.38
2022-07-29T02:51:51.607Z,101307.22
2022-07-29T02:54:26.082Z,101306.13
2022-07-29T02:56:56.670Z,101298.28
2022-07-29T02:59:29.297Z,101308.91
2022-07-29T03:02:01.797Z,101303.41
2022-07-29T03:04:31.301Z,101305.94
2022-07-29T03:07:01.743Z,101302.06
2022-07-29T03:09:30.644Z,101311.41
2022-07-29T03:11:59.850Z,101312.72
2022-07-29T03:14:28.792Z,101315.66
2022-07-29T03:16:58.649Z,101323.31
2022-07-29T03:19:28.501Z,101315.88
2022-07-29T03:22:04.805Z,101315.53
2022-07-29T03:24:34.862Z,101316.75
2022-07-29T03:27:04.057Z,101319.34
2022-07-29T03:29:32.918Z,101318.91
2022-07-29T03:32:08.257Z,101319.22
2022-07-29T03:34:38.028Z,101324.97
2022-07-29T03:37:08.229Z,101318.66
2022-07-29T03:39:41.646Z,101320.16
2022-07-29T03:42:12.917Z,101318.56
2022-07-29T03:44:44.430Z,101322.34
2022-07-29T03:47:16.871Z,101324.91
2022-07-29T03:49:48.786Z,101323.50
2022-07-29T03:52:18.232Z,101331.59
2022-07-29T03:54:46.786Z,101320.41
2022-07-29T03:57:17.366Z,101325.59
2022-07-29T03:59:46.248Z,101330.34
2022-07-29T04:02:21.518Z,101328.84
2022-07-29T04:04:50.628Z,101331.75
2022-07-29T04:07:18.787Z,101327.78
2022-07-29T04:09:49.267Z,101334.06
2022-07-29T04:12:17.411Z,101335.72
2022-07-29T04:14:47.690Z,101331.16
2022-07-29T04:17:17.031Z,101336.75
2022-07-29T04:19:45.361Z,101336.34
2022-07-29T04:22:13.326Z,101342.38
2022-07-29T04:24:44.304Z,101335.97
2022-07-29T04:27:12.613Z,101337.44
2022-07-29T04:29:57.341Z,101333.09
2022-07-29T04:32:27.783Z,101331.47
2022-07-29T04:34:55.878Z,101332.72
2022-07-29T04:37:23.901Z,101330.47
2022-07-29T04:39:52.167Z,101332.81
2022-07-29T04:42:27.584Z,101333.03
2022-07-29T04:44:56.692Z,101337.19
2022-07-29T04:47:26.108Z,101339.47
2022-07-29T04:49:54.109Z,101335.31
2022-07-29T04:52:22.218Z,101337.81
2022-07-29T04:54:50.161Z,101349.63
2022-07-29T04:57:18.131Z,101347.38
2022-07-29T04:59:46.172Z,101348.19
2022-07-29T05:02:14.611Z,101346.94
2022-07-29T05:04:44.090Z,101357.28
2022-07-29T05:07:12.066Z,101361.84
2022-07-29T05:09:40.143Z,101361.63
2022-07-29T05:12:09.316Z,101360.19
2022-07-29T05:14:39.975Z,101357.25
2022-07-29T05:17:08.246Z,101364.69
2022-07-29T05:19:39.395Z,101364.88
2022-07-29T05:22:09.428Z,101363.00
2022-07-29T05:24:37.427Z,101365.19
2022-07-29T05:27:06.294Z,101366.41
2022-07-29T05:29:44.588Z,101362.63
2022-07-29T05:32:14.127Z,101364.09
2022-07-29T05:34:50.250Z,101371.13
2022-07-29T05:37:21.327Z,101365.72
2022-07-29T05:39:56.354Z,101368.09
2022-07-29T05:42:25.746Z,101361.78
2022-07-29T05:44:54.196Z,101366.34
2022-07-29T05:47:22.939Z,101357.53
2022-07-29T05:49:52.724Z,101358.53
2022-07-29T05:52:22.492Z,101354.06
2022-07-29T05:54:50.524Z,101357.81
2022-07-29T05:57:19.604Z,101353.31
2022-07-29T05:59:48.231Z,101353.34
2022-07-29T06:02:17.053Z,101344.84
2022-07-29T06:04:45.669Z,101354.13
2022-07-29T06:07:14.330Z,101355.31
2022-07-29T06:09:43.817Z,101348.41
2022-07-29T06:12:12.042Z,101356.38
2022-07-29T06:14:41.602Z,101357.09
2022-07-29T06:17:09.602Z,101357.47
2022-07-29T06:19:37.818Z,101356.63
2022-07-29T06:22:06.190Z,101351.59
2022-07-29T06:24:34.115Z,101348.34
2022-07-29T06:27:03.779Z,101353.72
2022-07-29T06:29:32.956Z,101351.56
2022-07-29T06:32:01.177Z,101350.00
2022-07-29T06:34:29.530Z,101349.41
2022-07-29T06:37:01.520Z,101351.91
2022-07-29T06:39:29.520Z,101356.03
2022-07-29T06:41:57.459Z,101362.63
2022-07-29T06:44:27.714Z,101360.84
2022-07-29T06:46:55.885Z,101363.63
2022-07-29T06:49:25.487Z,101363.00
2022-07-29T06:51:53.759Z,101363.44
2022-07-29T06:54:22.860Z,101355.38
2022-07-29T06:56:50.921Z,101358.75
2022-07-29T06:59:19.841Z,101352.75
2022-07-29T07:01:51.176Z,101356.81
2022-07-29T07:04:20.182Z,101350.16
2022-07-29T07:06:48.699Z,101361.69
2022-07-29T07:09:17.441Z,101356.75
2022-07-29T07:11:45.372Z,101349.09
2022-07-29T07:14:18.033Z,101355.25
2022-07-29T07:16:46.532Z,101350.41
2022-07-29T07:19:16.368Z,101349.41
2022-07-29T07:21:44.418Z,101359.31
2022-07-29T07:24:12.663Z,101352.38
2022-07-29T07:26:41.767Z,101354.69
2022-07-29T07:29:09.695Z,101348.63
2022-07-29T07:31:40.131Z,101347.53
2022-07-29T07:34:08.359Z,101344.00
2022-07-29T07:36:37.667Z,101346.59
2022-07-29T07:39:06.504Z,101345.03
2022-07-29T07:41:34.524Z,101337.69
2022-07-29T07:44:02.705Z,101348.00
2022-07-29T07:46:31.365Z,101337.47
2022-07-29T07:48:59.445Z,101342.81
2022-07-29T07:51:28.051Z,101339.66
2022-07-29T07:53:57.750Z,101338.88
2022-07-29T07:56:30.727Z,101344.19
2022-07-29T07:59:03.170Z,101333.69
2022-07-29T08:01:31.284Z,101336.56
2022-07-29T08:04:24.938Z,101341.06
2022-07-29T08:06:55.851Z,101334.31
2022-07-29T08:09:30.643Z,101338.75
2022-07-29T08:12:03.472Z,101342.34
2022-07-29T08:14:32.032Z,101333.72
2022-07-29T08:17:00.170Z,101336.00
2022-07-29T08:19:29.695Z,101348.59
2022-07-29T08:21:57.879Z,101341.16
2022-07-29T08:24:47.331Z,101342.34
2022-07-29T08:27:40.860Z,101342.16
2022-07-29T08:30:04.356Z,101341.91
2022-07-29T08:32:52.658Z,101337.06
2022-07-29T08:35:20.983Z,101342.22
2022-07-29T08:37:49.161Z,101337.88
2022-07-29T08:40:18.766Z,101342.91
2022-07-29T08:42:47.546Z,101342.16
2022-07-29T08:45:15.780Z,101346.84
2022-07-29T08:47:45.021Z,101348.28
2022-07-29T08:50:13.510Z,101343.16
2022-07-29T08:52:44.416Z,101346.69
2022-07-29T08:55:12.932Z,101344.25
2022-07-29T08:57:50.957Z,101342.34
2022-07-29T09:00:24.504Z,101350.75
2022-07-29T09:02:59.761Z,101349.13
2022-07-29T09:05:28.617Z,101352.63
2022-07-29T09:07:59.847Z,101353.94
2022-07-29T09:10:31.236Z,101354.19
2022-07-29T09:13:00.529Z,101353.34
2022-07-29T09:15:31.060Z,101345.94
2022-07-29T09:17:59.596Z,101351.09
2022-07-29T09:20:51.309Z,101350.84
2022-07-29T09:23:23.109Z,101345.19
2022-07-29T09:25:53.307Z,101349.06
2022-07-29T09:28:24.842Z,101346.09
2022-07-29T09:30:54.263Z,101351.06
2022-07-29T09:33:23.170Z,101350.81
2022-07-29T09:36:02.831Z,101347.00
2022-07-29T09:38:32.411Z,101341.88
2022-07-29T09:41:05.741Z,101340.50
2022-07-29T09:43:36.442Z,101336.44
2022-07-29T09:46:14.295Z,101339.72
2022-07-29T09:48:42.613Z,101332.34
2022-07-29T09:51:23.021Z,101328.53
2022-07-29T09:53:55.886Z,101332.88
2022-07-29T09:56:40.739Z,101323.56
2022-07-29T09:59:15.937Z,101324.59
2022-07-29T10:01:47.241Z,101327.56
2022-07-29T10:04:16.236Z,101316.81
2022-07-29T10:07:04.298Z,101325.81
2022-07-29T10:09:33.152Z,101314.28
2022-07-29T10:12:07.778Z,101316.53
2022-07-29T10:14:51.829Z,101314.34
2022-07-29T10:17:20.562Z,101315.19
2022-07-29T10:19:52.215Z,101315.50
2022-07-29T10:22:50.443Z,101313.88
2022-07-29T10:25:09.516Z,101311.72
2022-07-29T10:27:40.199Z,101314.81
2022-07-29T10:30:11.188Z,101315.09
2022-07-29T10:32:59.387Z,101306.91
2022-07-29T10:35:40.793Z,101307.13
2022-07-29T10:38:53.442Z,101302.44
2022-07-29T10:41:59.932Z,101299.69
2022-07-29T10:44:46.778Z,101303.53
2022-07-29T10:47:35.729Z,101305.97
2022-07-29T10:50:06.089Z,101296.69
2022-07-29T10:52:57.588Z,101301.09
2022-07-29T10:55:51.815Z,101312.38
2022-07-29T10:58:23.682Z,101305.19
2022-07-29T11:00:53.223Z,101305.91
2022-07-29T11:03:50.613Z,101305.28
2022-07-29T11:06:26.871Z,101302.09
2022-07-29T11:09:25.842Z,101304.03
2022-07-29T11:12:48.667Z,101289.34
2022-07-29T11:15:20.096Z,101304.13
2022-07-29T11:18:08.094Z,101292.38
2022-07-29T11:20:50.263Z,101291.56
2022-07-29T11:23:25.737Z,101295.13
2022-07-29T11:26:25.780Z,101289.09
2022-07-29T11:29:03.165Z,101292.63
2022-07-29T11:31:44.639Z,101289.38
2022-07-29T11:37:28.165Z,101282.78
2022-07-29T11:43:07.389Z,101289.38
2022-07-29T11:45:48.684Z,101287.72
2022-07-29T11:48:29.467Z,101288.53
2022-07-29T11:51:00.993Z,101279.75
2022-07-29T11:53:32.334Z,101277.00
2022-07-29T11:56:03.574Z,101272.63
2022-07-29T11:58:32.903Z,101282.75
2022-07-29T12:01:04.863Z,101281.34
2022-07-29T12:03:38.600Z,101278.31
2022-07-29T12:06:15.440Z,101276.09
2022-07-29T12:07:01.564Z,101290.72
2022-07-29T12:07:03.392Z,101286.34
2022-07-29T12:08:47.636Z,101282.66
2022-07-29T12:11:21.292Z,101292.03
2022-07-29T12:13:51.720Z,101279.69
2022-07-29T12:16:25.833Z,101281.06
2022-07-29T12:19:02.919Z,101278.91
2022-07-29T12:21:31.766Z,101274.53
2022-07-29T12:24:09.342Z,101283.84
2022-07-29T12:26:51.030Z,101273.44
2022-07-29T12:29:34.656Z,101274.25
2022-07-29T12:32:04.383Z,101281.09
2022-07-29T12:34:33.263Z,101287.97
2022-07-29T12:37:06.648Z,101272.34
2022-07-29T12:39:37.029Z,101275.59
2022-07-29T12:42:15.035Z,101270.06
2022-07-29T12:44:56.612Z,101270.88
2022-07-29T12:47:24.958Z,101270.56
2022-07-29T12:50:09.185Z,101264.50
2022-07-29T12:52:38.406Z,101263.31
2022-07-29T12:55:08.919Z,101262.72
2022-07-29T12:57:48.691Z,101258.94
2022-07-29T13:00:17.836Z,101258.16
2022-07-29T13:02:46.872Z,101252.16
2022-07-29T13:05:14.963Z,101248.56
2022-07-29T13:07:57.076Z,101247.50
2022-07-29T13:10:27.056Z,101251.03
2022-07-29T13:13:09.119Z,101249.63
2022-07-29T13:15:37.868Z,101247.06
2022-07-29T13:18:27.082Z,101243.72
2022-07-29T13:20:55.099Z,101244.94
2022-07-29T13:23:23.207Z,101244.22
2022-07-29T13:25:52.533Z,101247.00
2022-07-29T13:28:22.659Z,101245.34
2022-07-29T13:30:50.806Z,101243.16
2022-07-29T13:33:19.424Z,101229.97
2022-07-29T13:35:48.595Z,101234.00
2022-07-29T13:38:16.785Z,101232.31
2022-07-29T13:40:45.099Z,101230.06
2022-07-29T13:43:15.328Z,101228.41
2022-07-29T13:45:43.574Z,101223.22
2022-07-29T13:48:12.321Z,101227.59
2022-07-29T13:50:40.441Z,101214.75
2022-07-29T13:53:27.058Z,101226.56
2022-07-29T13:55:55.984Z,101220.63
2022-07-29T13:58:25.632Z,101219.03
2022-07-29T14:00:53.754Z,101212.13
2022-07-29T14:03:25.737Z,101210.84
2022-07-29T14:05:53.848Z,101214.69
2022-07-29T14:08:25.311Z,101216.94
2022-07-29T14:10:53.436Z,101209.81
2022-07-29T14:13:25.154Z,101217.22
2022-07-29T14:15:55.863Z,101209.50
2022-07-29T14:18:24.076Z,101210.84
2022-07-29T14:20:52.231Z,101211.34
2022-07-29T14:23:20.502Z,101211.28
2022-07-29T14:25:49.441Z,101209.56
2022-07-29T14:28:18.456Z,101214.75
2022-07-29T14:30:46.652Z,101206.44
2022-07-29T14:33:16.142Z,101208.38
2022-07-29T14:35:44.719Z,101203.88
2022-07-29T14:38:13.197Z,101203.63
2022-07-29T14:40:41.278Z,101194.38
2022-07-29T14:43:09.439Z,101201.50
2022-07-29T14:45:37.604Z,101198.19
2022-07-29T14:48:31.448Z,101196.56
2022-07-29T14:51:04.376Z,101194.91
2022-07-29T14:53:34.353Z,101205.88
2022-07-29T14:56:15.310Z,101189.41
2022-07-29T14:58:51.858Z,101195.75
2022-07-29T15:01:21.306Z,101197.13
2022-07-29T15:03:51.608Z,101186.16
2022-07-29T15:06:19.655Z,101190.28
2022-07-29T15:08:48.163Z,101194.63
2022-07-29T15:11:16.444Z,101201.75
2022-07-29T15:13:44.578Z,101190.78
2022-07-29T15:16:13.002Z,101188.81
2022-07-29T15:18:41.092Z,101180.66
2022-07-29T15:21:10.949Z,101177.09
2022-07-29T15:23:45.477Z,101179.81
2022-07-29T15:26:22.575Z,101185.25
2022-07-29T15:28:50.689Z,101187.38
2022-07-29T15:31:19.937Z,101176.31
2022-07-29T15:33:48.011Z,101182.94
2022-07-29T15:36:42.168Z,101181.06
2022-07-29T15:39:05.668Z,101180.75
2022-07-29T15:41:33.940Z,101180.78
2022-07-29T15:44:02.316Z,101168.88
2022-07-29T15:46:47.974Z,101167.22
2022-07-29T15:49:16.607Z,101164.06
2022-07-29T15:51:46.238Z,101175.97
2022-07-29T15:54:18.248Z,101164.72
2022-07-29T15:56:46.363Z,101164.72
2022-07-29T15:59:22.561Z,101167.91
2022-07-29T16:01:51.064Z,101162.16
2022-07-29T16:04:19.687Z,101153.25
2022-07-29T16:06:49.767Z,101150.66
2022-07-29T16:09:21.343Z,101148.53
2022-07-29T16:11:51.099Z,101148.22
2022-07-29T16:14:44.600Z,101155.03
2022-07-29T16:17:14.698Z,101150.28
2022-07-29T16:19:43.752Z,101154.41
2022-07-29T16:22:14.005Z,101152.97
2022-07-29T16:24:42.319Z,101141.09
2022-07-29T16:27:10.469Z,101146.66
2022-07-29T16:29:38.647Z,101142.97
2022-07-29T16:32:07.571Z,101132.09
2022-07-29T16:34:35.658Z,101142.44
2022-07-29T16:37:04.358Z,101137.66
2022-07-29T16:39:34.530Z,101132.84
2022-07-29T16:42:05.249Z,101134.31
2022-07-29T16:44:35.341Z,101132.91
2022-07-29T16:47:04.191Z,101132.69
2022-07-29T16:49:32.544Z,101130.38
2022-07-29T16:52:00.642Z,101137.50
2022-07-29T16:54:29.184Z,101127.44
2022-07-29T16:57:01.397Z,101138.47
2022-07-29T16:59:29.771Z,101134.63
2022-07-29T17:01:58.066Z,101136.09
2022-07-29T17:04:27.583Z,101131.16
2022-07-29T17:06:56.189Z,101134.94
2022-07-29T17:09:26.238Z,101131.94
2022-07-29T17:11:56.637Z,101137.03
2022-07-29T17:14:29.590Z,101138.91
2022-07-29T17:17:01.030Z,101139.94
2022-07-29T17:19:30.743Z,101143.41
2022-07-29T17:22:07.003Z,101143.94
2022-07-29T17:24:39.034Z,101149.97
2022-07-29T17:27:27.966Z,101141.03
2022-07-29T17:29:58.400Z,101146.66
2022-07-29T17:32:28.008Z,101150.03
2022-07-29T17:34:58.669Z,101150.38
2022-07-29T17:37:29.021Z,101161.13
2022-07-29T17:40:00.409Z,101160.50
2022-07-29T17:42:28.617Z,101156.41
2022-07-29T17:44:59.264Z,101148.97
2022-07-29T17:47:27.292Z,101157.72
2022-07-29T17:49:55.248Z,101150.56
2022-07-29T17:52:23.286Z,101151.19
2022-07-29T17:54:51.183Z,101143.25
2022-07-29T17:57:19.171Z,101147.44
2022-07-29T17:59:47.290Z,101143.34
2022-07-29T18:02:28.414Z,101145.28
2022-07-29T18:04:57.363Z,101154.41
2022-07-29T18:07:25.436Z,101151.13
2022-07-29T18:09:57.411Z,101147.50
2022-07-29T18:12:28.269Z,101153.38
2022-07-29T18:14:56.455Z,101144.81
2022-07-29T18:17:48.358Z,101149.78
2022-07-29T18:20:18.953Z,101144.81
2022-07-29T18:22:47.037Z,101149.91
2022-07-29T18:25:15.175Z,101150.63
2022-07-29T18:27:43.882Z,101154.56
2022-07-29T18:30:12.671Z,101148.84
2022-07-29T18:32:54.315Z,101150.63
2022-07-29T18:38:12.646Z,101160.97
2022-07-29T18:40:43.183Z,101154.31
2022-07-29T18:43:11.645Z,101164.06
2022-07-29T18:45:40.026Z,101161.53
2022-07-29T18:48:12.826Z,101160.50
2022-07-29T18:50:41.260Z,101159.75
2022-07-29T18:53:11.820Z,101170.69
2022-07-29T18:55:39.935Z,101168.56
2022-07-29T18:58:08.351Z,101173.19
2022-07-29T19:00:36.587Z,101174.53
2022-07-29T19:03:05.032Z,101175.78
2022-07-29T19:05:34.948Z,101182.47
2022-07-29T19:08:03.451Z,101184.19
2022-07-29T19:10:31.720Z,101179.00
2022-07-29T19:13:01.499Z,101178.25
2022-07-29T19:15:29.723Z,101187.00
2022-07-29T19:18:09.347Z,101190.84
2022-07-29T19:20:42.316Z,101186.72
2022-07-29T19:23:10.651Z,101191.88
2022-07-29T19:25:53.179Z,101186.91
2022-07-29T19:28:21.933Z,101184.69
2022-07-29T19:30:52.838Z,101188.72
2022-07-29T19:33:21.529Z,101198.28
2022-07-29T19:35:57.786Z,101197.69
2022-07-29T19:38:29.732Z,101194.38
2022-07-29T19:41:05.617Z,101188.88
2022-07-29T19:43:51.500Z,101200.28
2022-07-29T19:46:21.767Z,101195.03
2022-07-29T19:48:50.404Z,101187.91
2022-07-29T19:51:19.867Z,101197.69
2022-07-29T19:53:48.146Z,101197.66
2022-07-29T19:56:16.194Z,101191.31
2022-07-29T19:58:45.656Z,101197.56
2022-07-29T20:01:13.672Z,101192.63
2022-07-29T20:03:41.663Z,101195.34
2022-07-29T20:06:09.719Z,101196.09
2022-07-29T20:08:39.055Z,101183.81
2022-07-29T20:11:11.135Z,101189.81
2022-07-29T20:13:41.613Z,101197.19
2022-07-29T20:16:10.924Z,101196.25
2022-07-29T20:18:38.896Z,101190.97
2022-07-29T20:21:07.059Z,101189.03
2022-07-29T20:23:35.489Z,101177.25
2022-07-29T20:26:09.461Z,101187.34
2022-07-29T20:28:39.597Z,101198.41
2022-07-29T20:31:11.237Z,101198.34
2022-07-29T20:33:39.215Z,101191.00
2022-07-29T20:36:12.542Z,101197.72
2022-07-29T20:38:40.675Z,101198.97
2022-07-29T20:41:10.096Z,101201.94
2022-07-29T20:43:39.593Z,101203.59
2022-07-29T20:46:07.757Z,101204.59
2022-07-29T20:48:36.035Z,101199.88
2022-07-29T20:51:15.702Z,101195.75
2022-07-29T20:53:43.646Z,101193.34
2022-07-29T20:56:13.359Z,101197.13
2022-07-29T21:01:11.233Z,101193.53
2022-07-29T21:03:39.292Z,101198.97
2022-07-29T21:06:07.990Z,101191.59
2022-07-29T21:08:36.147Z,101197.28
2022-07-29T21:11:07.222Z,101196.13
2022-07-29T21:13:42.439Z,101197.22
2022-07-29T21:16:14.800Z,101192.22
2022-07-29T21:18:46.205Z,101201.91
2022-07-29T21:21:15.223Z,101201.84
2022-07-29T21:23:44.143Z,101199.88
2022-07-29T21:26:13.169Z,101193.94
2022-07-29T21:28:43.728Z,101196.72
2022-07-29T21:31:13.544Z,101196.72
2022-07-29T21:33:43.180Z,101197.38
2022-07-29T21:36:44.004Z,101196.50
2022-07-29T21:39:17.126Z,101191.09
2022-07-29T21:41:45.159Z,101197.59
2022-07-29T21:44:14.916Z,101190.94
2022-07-29T21:46:43.222Z,101193.59
2022-07-29T21:49:11.355Z,101190.22
2022-07-29T21:51:39.451Z,101191.22
2022-07-29T21:54:07.839Z,101190.97
2022-07-29T21:56:36.945Z,101192.88
2022-07-29T21:59:05.174Z,101194.56
2022-07-29T22:01:39.697Z,101200.84
2022-07-29T22:04:07.943Z,101195.78
2022-07-29T22:06:35.931Z,101197.50
2022-07-29T22:09:04.412Z,101203.81
2022-07-29T22:11:33.822Z,101210.19
2022-07-29T22:14:01.836Z,101198.13
2022-07-29T22:16:29.889Z,101202.09
2022-07-29T22:18:59.548Z,101187.78
2022-07-29T22:21:27.619Z,101197.16
2022-07-29T22:23:55.844Z,101198.28
2022-07-29T22:26:23.866Z,101201.38
2022-07-29T22:28:52.431Z,101202.59
2022-07-29T22:31:21.078Z,101199.53
2022-07-29T22:33:51.260Z,101188.97
2022-07-29T22:36:20.951Z,101197.94
2022-07-29T22:38:51.864Z,101193.66
2022-07-29T22:41:19.938Z,101192.59
2022-07-29T22:43:48.012Z,101193.38
2022-07-29T22:46:16.321Z,101198.78
2022-07-29T22:48:44.407Z,101186.03
2022-07-29T22:51:12.488Z,101183.16
2022-07-29T22:53:41.959Z,101181.91
2022-07-29T22:56:10.262Z,101186.53
2022-07-29T22:58:38.292Z,101185.13
2022-07-29T23:01:07.476Z,101182.84
2022-07-29T23:03:35.583Z,101179.31
2022-07-29T23:06:03.689Z,101181.53
2022-07-29T23:08:31.848Z,101176.00
2022-07-29T23:11:03.978Z,101182.31
2022-07-29T23:13:31.998Z,101172.69
2022-07-29T23:16:00.280Z,101168.97
2022-07-29T23:18:39.259Z,101173.00
2022-07-29T23:21:07.482Z,101177.00
2022-07-29T23:23:37.190Z,101172.47
2022-07-29T23:26:06.467Z,101167.84
2022-07-29T23:28:35.635Z,101170.22
2022-07-29T23:31:04.507Z,101167.63
2022-07-29T23:33:32.988Z,101167.63
2022-07-29T23:36:00.935Z,101168.03
2022-07-29T23:38:31.719Z,101173.22
2022-07-29T23:41:01.704Z,101161.28
2022-07-29T23:43:33.319Z,101161.69
2022-07-29T23:46:01.339Z,101157.16
2022-07-29T23:48:31.921Z,101169.16
2022-07-29T23:51:01.315Z,101163.41
2022-07-29T23:53:29.855Z,101166.38
2022-07-29T23:55:58.059Z,101165.53
2022-07-29T23:58:26.093Z,101170.81
